Time;durP1;ratioP1;P1;durP2;ratioP2;P2;SDS_P1;SDS_P2;PMS_P1;PMS_P2;Temp;Humidity;BMP_temperature;BMP_pressure;BME280_temperature;BME280_humidity;BME280_pressure;Samples;Min_cycle;Max_cycle;Signal;HPM_P1;HPM_P2
2023/04/09 00:00:48;;;;;;;14.37;10.37;;;9.00;99.90;;;;;;5724508;24;20222;-84
2023/04/09 00:31:08;;;;;;;20.60;12.80;;;8.50;99.90;;;;;;5591181;24;20689;-81
2023/04/09 01:27:00;;;;;;;20.83;14.63;;;8.20;99.90;;;;;;5666035;24;20259;-82
2023/04/09 02:02:10;;;;;;;18.17;13.13;;;7.90;99.90;;;;;;5776345;24;21326;-85
2023/04/09 02:27:30;;;;;;;29.33;19.77;;;8.00;99.90;;;;;;5781199;23;20627;-83
2023/04/09 02:58:16;;;;;;;33.07;22.63;;;7.90;99.90;;;;;;5910939;23;20195;-81
2023/04/09 03:28:38;;;;;;;36.40;22.67;;;7.90;99.90;;;;;;5902585;23;20151;-83
2023/04/09 03:59:14;;;;;;;32.37;19.93;;;6.80;99.90;;;;;;5912422;23;20246;-82
2023/04/09 04:24:18;;;;;;;30.73;19.07;;;7.00;99.90;;;;;;5776590;24;20258;-84
2023/04/09 06:20:36;;;;;;;21.63;14.83;;;10.30;99.90;;;;;;5654761;24;20564;-81
2023/04/09 06:41:10;;;;;;;18.10;13.20;;;10.70;99.90;;;;;;5666890;24;20173;-82
2023/04/09 07:01:34;;;;;;;24.00;17.17;;;10.60;99.90;;;;;;5657960;24;20261;-82
2023/04/09 07:27:06;;;;;;;16.83;13.47;;;11.60;99.90;;;;;;5568232;24;20278;-84
2023/04/09 08:12:44;;;;;;;13.13;10.63;;;13.00;98.20;;;;;;5655959;24;20202;-84
2023/04/09 08:38:03;;;;;;;12.37;10.40;;;13.80;91.60;;;;;;5766343;24;20294;-84
2023/04/09 09:08:29;;;;;;;11.23;9.93;;;14.30;87.90;;;;;;5939024;23;20202;-84
2023/04/09 09:28:47;;;;;;;9.97;8.97;;;15.40;84.80;;;;;;5827431;24;20182;-81
2023/04/09 10:34:39;;;;;;;11.33;9.27;;;14.30;85.10;;;;;;5741085;24;20355;-81
2023/04/09 11:04:56;;;;;;;11.43;9.57;;;14.90;83.90;;;;;;5839531;24;20891;-84
2023/04/09 11:35:14;;;;;;;9.40;8.37;;;15.20;81.80;;;;;;5853323;23;20165;-84
2023/04/09 11:55:37;;;;;;;10.93;8.67;;;15.50;81.30;;;;;;5693440;24;20540;-83
2023/04/09 12:36:19;;;;;;;8.50;7.20;;;15.90;78.10;;;;;;5706956;24;20301;-86
2023/04/09 13:01:35;;;;;;;6.80;6.10;;;14.70;87.60;;;;;;5877315;23;20289;-83
2023/04/09 13:41:32;;;;;;;10.13;8.97;;;13.40;99.50;;;;;;5816684;24;21092;-84
2023/04/09 14:17:44;;;;;;;10.53;8.73;;;13.80;99.90;;;;;;5832628;24;20349;-84
2023/04/09 14:22:06;;;;;;;12.10;8.57;;;13.70;99.90;;;;;;5730951;24;20460;-84
2023/04/09 14:47:49;;;;;;;8.63;6.30;;;13.80;95.20;;;;;;5739584;24;20166;-84
2023/04/09 15:48:51;;;;;;;6.27;5.33;;;13.50;90.50;;;;;;5730696;24;20664;-85
2023/04/09 16:29:32;;;;;;;4.90;4.47;;;17.80;64.70;;;;;;5917290;23;20181;-84
2023/04/09 16:33:52;;;;;;;4.50;4.10;;;17.60;68.20;;;;;;5943813;23;20464;-84
2023/04/09 16:54:10;;;;;;;5.10;4.60;;;14.90;81.90;;;;;;5860549;23;20196;-84
2023/04/09 17:15:08;;;;;;;7.23;5.77;;;13.30;88.80;;;;;;5789627;24;20335;-87
2023/04/09 17:40:25;;;;;;;7.27;6.53;;;13.00;90.40;;;;;;5848999;24;20196;-83
2023/04/09 18:10:42;;;;;;;9.67;8.67;;;12.40;95.00;;;;;;5888725;24;20207;-85
2023/04/09 18:46:15;;;;;;;13.20;9.63;;;11.50;99.90;;;;;;5888448;24;20227;-84
2023/04/09 19:31:44;;;;;;;14.53;10.40;;;11.10;99.90;;;;;;5909227;23;20245;-84
2023/04/09 20:02:07;;;;;;;10.37;9.23;;;10.90;99.90;;;;;;5716109;24;20194;-85
2023/04/09 20:58:06;;;;;;;14.57;11.13;;;10.60;99.90;;;;;;5927102;23;20348;-85
2023/04/09 21:33:00;;;;;;;17.30;13.30;;;9.60;99.90;;;;;;5659885;24;20506;-83
2023/04/09 21:58:51;;;;;;;16.93;13.73;;;9.70;99.90;;;;;;5811799;24;20327;-82
2023/04/09 22:29:16;;;;;;;19.30;15.43;;;9.10;99.90;;;;;;5686345;24;20242;-85
2023/04/09 22:59:53;;;;;;;22.70;16.23;;;8.60;99.90;;;;;;5844261;24;20214;-85
